sensor_id;sensor_type;location;lat;lon;timestamp;P1;durP1;ratioP1;P2;durP2;ratioP2
23684;SDS011;12020;51.384;6.908;2023-04-15T00:02:12;6.57;;;5.38;;
23684;SDS011;12020;51.384;6.908;2023-04-15T00:04:46;7.40;;;5.60;;
23684;SDS011;12020;51.384;6.908;2023-04-15T00:07:12;7.47;;;5.60;;
23684;SDS011;12020;51.384;6.908;2023-04-15T00:09:40;8.60;;;5.93;;
23684;SDS011;12020;51.384;6.908;2023-04-15T00:12:07;9.45;;;6.13;;
23684;SDS011;12020;51.384;6.908;2023-04-15T00:14:33;7.20;;;5.88;;
23684;SDS011;12020;51.384;6.908;2023-04-15T00:17:01;8.80;;;5.97;;
23684;SDS011;12020;51.384;6.908;2023-04-15T00:19:27;8.00;;;5.82;;
23684;SDS011;12020;51.384;6.908;2023-04-15T00:21:54;7.70;;;5.78;;
23684;SDS011;12020;51.384;6.908;2023-04-15T00:24:21;7.07;;;5.80;;
23684;SDS011;12020;51.384;6.908;2023-04-15T00:26:47;6.78;;;5.05;;
23684;SDS011;12020;51.384;6.908;2023-04-15T00:29:13;6.47;;;5.50;;
23684;SDS011;12020;51.384;6.908;2023-04-15T00:31:39;7.88;;;5.13;;
23684;SDS011;12020;51.384;6.908;2023-04-15T00:34:06;6.63;;;5.05;;
23684;SDS011;12020;51.384;6.908;2023-04-15T00:36:32;7.27;;;5.60;;
23684;SDS011;12020;51.384;6.908;2023-04-15T00:39:00;7.72;;;5.47;;
23684;SDS011;12020;51.384;6.908;2023-04-15T00:41:27;7.53;;;5.78;;
23684;SDS011;12020;51.384;6.908;2023-04-15T00:43:55;6.45;;;5.32;;
23684;SDS011;12020;51.384;6.908;2023-04-15T00:46:20;8.10;;;5.90;;
23684;SDS011;12020;51.384;6.908;2023-04-15T00:48:47;6.07;;;5.47;;
23684;SDS011;12020;51.384;6.908;2023-04-15T00:51:13;7.50;;;5.85;;
23684;SDS011;12020;51.384;6.908;2023-04-15T00:53:39;7.88;;;6.10;;
23684;SDS011;12020;51.384;6.908;2023-04-15T00:56:05;7.82;;;6.55;;
23684;SDS011;12020;51.384;6.908;2023-04-15T00:58:33;7.97;;;6.22;;
23684;SDS011;12020;51.384;6.908;2023-04-15T01:00:59;8.18;;;6.05;;
23684;SDS011;12020;51.384;6.908;2023-04-15T01:03:26;9.32;;;6.38;;
23684;SDS011;12020;51.384;6.908;2023-04-15T01:05:53;9.25;;;6.45;;
23684;SDS011;12020;51.384;6.908;2023-04-15T01:08:31;8.85;;;6.03;;
23684;SDS011;12020;51.384;6.908;2023-04-15T01:10:57;7.50;;;6.10;;
23684;SDS011;12020;51.384;6.908;2023-04-15T01:13:27;6.22;;;5.60;;
23684;SDS011;12020;51.384;6.908;2023-04-15T01:15:55;7.47;;;6.20;;
23684;SDS011;12020;51.384;6.908;2023-04-15T01:18:22;6.88;;;6.18;;
23684;SDS011;12020;51.384;6.908;2023-04-15T01:20:48;8.30;;;7.50;;
23684;SDS011;12020;51.384;6.908;2023-04-15T01:23:15;9.23;;;7.35;;
23684;SDS011;12020;51.384;6.908;2023-04-15T01:25:42;8.18;;;6.63;;
23684;SDS011;12020;51.384;6.908;2023-04-15T01:28:09;8.50;;;7.18;;
23684;SDS011;12020;51.384;6.908;2023-04-15T01:30:35;8.20;;;7.18;;
23684;SDS011;12020;51.384;6.908;2023-04-15T01:33:01;10.13;;;7.30;;
23684;SDS011;12020;51.384;6.908;2023-04-15T01:35:28;9.90;;;7.72;;
23684;SDS011;12020;51.384;6.908;2023-04-15T01:37:54;9.30;;;7.57;;
23684;SDS011;12020;51.384;6.908;2023-04-15T01:40:24;8.17;;;6.77;;
23684;SDS011;12020;51.384;6.908;2023-04-15T01:42:51;9.20;;;6.57;;
23684;SDS011;12020;51.384;6.908;2023-04-15T01:45:17;8.18;;;7.22;;
23684;SDS011;12020;51.384;6.908;2023-04-15T01:47:43;7.83;;;6.93;;
23684;SDS011;12020;51.384;6.908;2023-04-15T01:50:09;8.15;;;7.30;;
23684;SDS011;12020;51.384;6.908;2023-04-15T01:52:35;8.90;;;7.37;;
23684;SDS011;12020;51.384;6.908;2023-04-15T01:55:02;8.95;;;7.43;;
23684;SDS011;12020;51.384;6.908;2023-04-15T01:57:30;9.68;;;7.20;;
23684;SDS011;12020;51.384;6.908;2023-04-15T01:59:56;10.13;;;7.80;;
23684;SDS011;12020;51.384;6.908;2023-04-15T02:02:22;8.15;;;6.78;;
23684;SDS011;12020;51.384;6.908;2023-04-15T02:04:48;8.68;;;7.13;;
23684;SDS011;12020;51.384;6.908;2023-04-15T02:07:14;8.67;;;7.20;;
23684;SDS011;12020;51.384;6.908;2023-04-15T02:09:42;8.38;;;6.63;;
23684;SDS011;12020;51.384;6.908;2023-04-15T02:12:10;8.77;;;7.38;;
23684;SDS011;12020;51.384;6.908;2023-04-15T02:14:37;8.57;;;6.88;;
23684;SDS011;12020;51.384;6.908;2023-04-15T02:17:04;9.70;;;7.40;;
23684;SDS011;12020;51.384;6.908;2023-04-15T02:19:33;10.00;;;7.55;;
23684;SDS011;12020;51.384;6.908;2023-04-15T02:22:02;8.68;;;7.00;;
23684;SDS011;12020;51.384;6.908;2023-04-15T02:24:28;7.87;;;7.07;;
23684;SDS011;12020;51.384;6.908;2023-04-15T02:26:56;9.90;;;7.28;;
23684;SDS011;12020;51.384;6.908;2023-04-15T02:29:22;8.57;;;7.50;;
23684;SDS011;12020;51.384;6.908;2023-04-15T02:31:49;9.50;;;7.93;;
23684;SDS011;12020;51.384;6.908;2023-04-15T02:34:15;9.30;;;7.78;;
23684;SDS011;12020;51.384;6.908;2023-04-15T02:36:41;9.68;;;8.30;;
23684;SDS011;12020;51.384;6.908;2023-04-15T02:39:07;9.68;;;7.95;;
23684;SDS011;12020;51.384;6.908;2023-04-15T02:41:33;10.40;;;7.95;;
23684;SDS011;12020;51.384;6.908;2023-04-15T02:44:00;10.52;;;8.15;;
23684;SDS011;12020;51.384;6.908;2023-04-15T02:46:25;13.30;;;8.55;;
23684;SDS011;12020;51.384;6.908;2023-04-15T02:48:51;10.05;;;7.90;;
23684;SDS011;12020;51.384;6.908;2023-04-15T02:51:19;10.63;;;8.45;;
23684;SDS011;12020;51.384;6.908;2023-04-15T02:53:47;9.93;;;7.80;;
23684;SDS011;12020;51.384;6.908;2023-04-15T02:56:13;11.07;;;8.25;;
23684;SDS011;12020;51.384;6.908;2023-04-15T02:58:41;9.85;;;7.75;;
23684;SDS011;12020;51.384;6.908;2023-04-15T03:01:10;9.57;;;8.50;;
23684;SDS011;12020;51.384;6.908;2023-04-15T03:03:37;9.70;;;8.20;;
23684;SDS011;12020;51.384;6.908;2023-04-15T03:06:03;10.77;;;8.52;;
23684;SDS011;12020;51.384;6.908;2023-04-15T03:08:28;8.95;;;7.90;;
23684;SDS011;12020;51.384;6.908;2023-04-15T03:10:57;10.32;;;8.90;;
23684;SDS011;12020;51.384;6.908;2023-04-15T03:13:24;9.48;;;8.57;;
23684;SDS011;12020;51.384;6.908;2023-04-15T03:15:51;10.73;;;8.80;;
23684;SDS011;12020;51.384;6.908;2023-04-15T03:18:17;11.15;;;9.02;;
23684;SDS011;12020;51.384;6.908;2023-04-15T03:20:44;10.63;;;8.90;;
23684;SDS011;12020;51.384;6.908;2023-04-15T03:23:10;11.57;;;9.50;;
23684;SDS011;12020;51.384;6.908;2023-04-15T03:25:36;10.55;;;9.45;;
23684;SDS011;12020;51.384;6.908;2023-04-15T03:28:02;13.38;;;11.30;;
23684;SDS011;12020;51.384;6.908;2023-04-15T03:30:28;11.68;;;10.40;;
23684;SDS011;12020;51.384;6.908;2023-04-15T03:32:54;12.32;;;11.07;;
23684;SDS011;12020;51.384;6.908;2023-04-15T03:35:21;11.40;;;10.30;;
23684;SDS011;12020;51.384;6.908;2023-04-15T03:37:48;11.82;;;10.48;;
23684;SDS011;12020;51.384;6.908;2023-04-15T03:40:14;12.15;;;10.20;;
23684;SDS011;12020;51.384;6.908;2023-04-15T03:42:39;10.93;;;9.83;;
23684;SDS011;12020;51.384;6.908;2023-04-15T03:45:05;10.00;;;9.00;;
23684;SDS011;12020;51.384;6.908;2023-04-15T03:47:32;11.27;;;10.10;;
23684;SDS011;12020;51.384;6.908;2023-04-15T03:49:58;10.90;;;9.73;;
23684;SDS011;12020;51.384;6.908;2023-04-15T03:52:24;11.80;;;10.60;;
23684;SDS011;12020;51.384;6.908;2023-04-15T03:54:50;11.60;;;10.50;;
23684;SDS011;12020;51.384;6.908;2023-04-15T03:57:16;12.38;;;10.90;;
23684;SDS011;12020;51.384;6.908;2023-04-15T03:59:42;11.98;;;10.65;;
23684;SDS011;12020;51.384;6.908;2023-04-15T04:02:08;12.15;;;9.95;;
23684;SDS011;12020;51.384;6.908;2023-04-15T04:04:34;10.53;;;9.53;;
23684;SDS011;12020;51.384;6.908;2023-04-15T04:07:00;11.50;;;10.32;;
23684;SDS011;12020;51.384;6.908;2023-04-15T04:09:26;11.43;;;10.30;;
23684;SDS011;12020;51.384;6.908;2023-04-15T04:11:52;13.93;;;11.70;;
23684;SDS011;12020;51.384;6.908;2023-04-15T04:14:18;12.38;;;11.18;;
23684;SDS011;12020;51.384;6.908;2023-04-15T04:16:43;12.55;;;10.82;;
23684;SDS011;12020;51.384;6.908;2023-04-15T04:19:09;12.93;;;11.60;;
23684;SDS011;12020;51.384;6.908;2023-04-15T04:21:35;14.17;;;12.37;;
23684;SDS011;12020;51.384;6.908;2023-04-15T04:24:03;13.30;;;12.00;;
23684;SDS011;12020;51.384;6.908;2023-04-15T04:26:29;12.52;;;11.23;;
23684;SDS011;12020;51.384;6.908;2023-04-15T04:28:55;12.63;;;11.30;;
23684;SDS011;12020;51.384;6.908;2023-04-15T04:31:21;12.32;;;11.02;;
23684;SDS011;12020;51.384;6.908;2023-04-15T04:33:47;12.45;;;11.30;;
23684;SDS011;12020;51.384;6.908;2023-04-15T04:36:13;14.23;;;12.77;;
23684;SDS011;12020;51.384;6.908;2023-04-15T04:38:39;13.90;;;12.27;;
23684;SDS011;12020;51.384;6.908;2023-04-15T04:41:05;13.88;;;12.48;;
23684;SDS011;12020;51.384;6.908;2023-04-15T04:43:31;16.92;;;14.60;;
23684;SDS011;12020;51.384;6.908;2023-04-15T04:45:57;15.80;;;14.10;;
23684;SDS011;12020;51.384;6.908;2023-04-15T04:48:24;16.10;;;14.40;;
23684;SDS011;12020;51.384;6.908;2023-04-15T04:50:50;14.98;;;13.48;;
23684;SDS011;12020;51.384;6.908;2023-04-15T04:53:16;15.55;;;13.98;;
23684;SDS011;12020;51.384;6.908;2023-04-15T04:55:42;16.65;;;14.95;;
23684;SDS011;12020;51.384;6.908;2023-04-15T04:58:08;15.55;;;13.95;;
23684;SDS011;12020;51.384;6.908;2023-04-15T05:00:35;16.37;;;14.63;;
23684;SDS011;12020;51.384;6.908;2023-04-15T05:03:02;15.30;;;13.77;;
23684;SDS011;12020;51.384;6.908;2023-04-15T05:05:29;15.20;;;13.70;;
23684;SDS011;12020;51.384;6.908;2023-04-15T05:07:55;15.73;;;14.23;;
23684;SDS011;12020;51.384;6.908;2023-04-15T05:10:21;15.07;;;13.50;;
23684;SDS011;12020;51.384;6.908;2023-04-15T05:12:47;15.57;;;13.95;;
23684;SDS011;12020;51.384;6.908;2023-04-15T05:15:14;15.20;;;13.75;;
23684;SDS011;12020;51.384;6.908;2023-04-15T05:17:40;14.95;;;13.43;;
23684;SDS011;12020;51.384;6.908;2023-04-15T05:20:06;15.70;;;14.07;;
23684;SDS011;12020;51.384;6.908;2023-04-15T05:22:32;15.52;;;14.02;;
23684;SDS011;12020;51.384;6.908;2023-04-15T05:24:58;16.02;;;14.35;;
23684;SDS011;12020;51.384;6.908;2023-04-15T05:27:24;16.10;;;14.60;;
23684;SDS011;12020;51.384;6.908;2023-04-15T05:29:50;16.67;;;15.02;;
23684;SDS011;12020;51.384;6.908;2023-04-15T05:32:16;15.30;;;13.80;;
23684;SDS011;12020;51.384;6.908;2023-04-15T05:34:42;15.70;;;14.23;;
23684;SDS011;12020;51.384;6.908;2023-04-15T05:37:08;15.77;;;14.27;;
23684;SDS011;12020;51.384;6.908;2023-04-15T05:39:34;16.10;;;14.50;;
23684;SDS011;12020;51.384;6.908;2023-04-15T05:41:59;14.38;;;12.98;;
23684;SDS011;12020;51.384;6.908;2023-04-15T05:44:26;15.20;;;13.80;;
23684;SDS011;12020;51.384;6.908;2023-04-15T05:46:52;15.60;;;13.80;;
23684;SDS011;12020;51.384;6.908;2023-04-15T05:49:18;15.40;;;13.80;;
23684;SDS011;12020;51.384;6.908;2023-04-15T05:51:44;15.87;;;14.27;;
23684;SDS011;12020;51.384;6.908;2023-04-15T05:54:12;15.95;;;14.40;;
23684;SDS011;12020;51.384;6.908;2023-04-15T05:56:38;16.73;;;14.93;;
23684;SDS011;12020;51.384;6.908;2023-04-15T05:59:05;16.60;;;15.00;;
23684;SDS011;12020;51.384;6.908;2023-04-15T06:01:32;15.77;;;14.20;;
23684;SDS011;12020;51.384;6.908;2023-04-15T06:04:00;16.00;;;14.43;;
23684;SDS011;12020;51.384;6.908;2023-04-15T06:06:26;15.90;;;14.40;;
23684;SDS011;12020;51.384;6.908;2023-04-15T06:08:53;16.23;;;14.60;;
23684;SDS011;12020;51.384;6.908;2023-04-15T06:11:20;16.47;;;14.87;;
23684;SDS011;12020;51.384;6.908;2023-04-15T06:13:47;17.40;;;15.70;;
23684;SDS011;12020;51.384;6.908;2023-04-15T06:16:13;16.77;;;15.18;;
23684;SDS011;12020;51.384;6.908;2023-04-15T06:18:38;15.93;;;14.43;;
23684;SDS011;12020;51.384;6.908;2023-04-15T06:21:04;12.75;;;8.68;;
23684;SDS011;12020;51.384;6.908;2023-04-15T06:23:33;20.17;;;14.30;;
23684;SDS011;12020;51.384;6.908;2023-04-15T06:26:01;16.85;;;15.15;;
23684;SDS011;12020;51.384;6.908;2023-04-15T06:28:28;15.98;;;14.45;;
23684;SDS011;12020;51.384;6.908;2023-04-15T06:30:55;16.58;;;14.98;;
23684;SDS011;12020;51.384;6.908;2023-04-15T06:33:21;17.15;;;15.43;;
23684;SDS011;12020;51.384;6.908;2023-04-15T06:35:47;16.48;;;14.80;;
23684;SDS011;12020;51.384;6.908;2023-04-15T06:38:14;16.05;;;14.55;;
23684;SDS011;12020;51.384;6.908;2023-04-15T06:40:39;16.95;;;15.30;;
23684;SDS011;12020;51.384;6.908;2023-04-15T06:43:06;17.63;;;15.85;;
23684;SDS011;12020;51.384;6.908;2023-04-15T06:45:32;17.42;;;15.73;;
23684;SDS011;12020;51.384;6.908;2023-04-15T06:47:58;17.10;;;15.50;;
23684;SDS011;12020;51.384;6.908;2023-04-15T06:50:23;16.98;;;15.27;;
23684;SDS011;12020;51.384;6.908;2023-04-15T06:52:51;16.60;;;14.90;;
23684;SDS011;12020;51.384;6.908;2023-04-15T06:55:18;16.58;;;15.00;;
23684;SDS011;12020;51.384;6.908;2023-04-15T06:57:44;16.60;;;15.00;;
23684;SDS011;12020;51.384;6.908;2023-04-15T07:00:11;16.40;;;14.80;;
23684;SDS011;12020;51.384;6.908;2023-04-15T07:02:38;15.93;;;14.38;;
23684;SDS011;12020;51.384;6.908;2023-04-15T07:05:04;15.27;;;13.80;;
23684;SDS011;12020;51.384;6.908;2023-04-15T07:07:31;18.52;;;14.18;;
23684;SDS011;12020;51.384;6.908;2023-04-15T07:09:57;15.50;;;14.00;;
23684;SDS011;12020;51.384;6.908;2023-04-15T07:12:23;15.07;;;13.57;;
23684;SDS011;12020;51.384;6.908;2023-04-15T07:14:49;15.43;;;13.93;;
23684;SDS011;12020;51.384;6.908;2023-04-15T07:17:14;13.68;;;12.38;;
23684;SDS011;12020;51.384;6.908;2023-04-15T07:19:40;13.30;;;11.98;;
23684;SDS011;12020;51.384;6.908;2023-04-15T07:22:06;13.20;;;11.93;;
23684;SDS011;12020;51.384;6.908;2023-04-15T07:24:32;11.02;;;10.02;;
23684;SDS011;12020;51.384;6.908;2023-04-15T07:26:58;11.70;;;10.55;;
23684;SDS011;12020;51.384;6.908;2023-04-15T07:29:24;11.52;;;10.43;;
23684;SDS011;12020;51.384;6.908;2023-04-15T07:31:51;11.68;;;10.57;;
23684;SDS011;12020;51.384;6.908;2023-04-15T07:34:18;11.82;;;10.73;;
23684;SDS011;12020;51.384;6.908;2023-04-15T07:36:44;11.07;;;10.02;;
23684;SDS011;12020;51.384;6.908;2023-04-15T07:39:14;10.55;;;9.55;;
23684;SDS011;12020;51.384;6.908;2023-04-15T07:41:41;11.90;;;10.80;;
23684;SDS011;12020;51.384;6.908;2023-04-15T07:44:07;11.23;;;10.13;;
23684;SDS011;12020;51.384;6.908;2023-04-15T07:46:33;11.80;;;10.70;;
23684;SDS011;12020;51.384;6.908;2023-04-15T07:48:59;11.50;;;10.48;;
23684;SDS011;12020;51.384;6.908;2023-04-15T07:51:26;11.20;;;10.10;;
23684;SDS011;12020;51.384;6.908;2023-04-15T07:53:53;11.43;;;10.32;;
23684;SDS011;12020;51.384;6.908;2023-04-15T07:56:19;11.50;;;10.40;;
23684;SDS011;12020;51.384;6.908;2023-04-15T07:58:46;8.73;;;7.88;;
23684;SDS011;12020;51.384;6.908;2023-04-15T08:01:12;10.60;;;9.50;;
23684;SDS011;12020;51.384;6.908;2023-04-15T08:03:38;11.17;;;10.07;;
23684;SDS011;12020;51.384;6.908;2023-04-15T08:06:04;10.43;;;9.32;;
23684;SDS011;12020;51.384;6.908;2023-04-15T08:08:30;10.70;;;9.60;;
23684;SDS011;12020;51.384;6.908;2023-04-15T08:10:57;10.23;;;9.15;;
23684;SDS011;12020;51.384;6.908;2023-04-15T08:13:23;10.20;;;9.20;;
23684;SDS011;12020;51.384;6.908;2023-04-15T08:15:52;10.02;;;9.02;;
23684;SDS011;12020;51.384;6.908;2023-04-15T08:18:37;9.80;;;8.90;;
23684;SDS011;12020;51.384;6.908;2023-04-15T08:21:03;10.43;;;9.43;;
23684;SDS011;12020;51.384;6.908;2023-04-15T08:23:31;10.13;;;9.13;;
23684;SDS011;12020;51.384;6.908;2023-04-15T08:25:57;10.00;;;9.10;;
23684;SDS011;12020;51.384;6.908;2023-04-15T08:28:23;9.35;;;8.50;;
23684;SDS011;12020;51.384;6.908;2023-04-15T08:30:51;9.07;;;8.03;;
23684;SDS011;12020;51.384;6.908;2023-04-15T08:33:17;9.95;;;8.82;;
23684;SDS011;12020;51.384;6.908;2023-04-15T08:35:45;9.85;;;8.85;;
23684;SDS011;12020;51.384;6.908;2023-04-15T08:38:11;7.80;;;7.00;;
23684;SDS011;12020;51.384;6.908;2023-04-15T08:40:41;7.10;;;6.40;;
23684;SDS011;12020;51.384;6.908;2023-04-15T08:43:09;7.25;;;6.65;;
23684;SDS011;12020;51.384;6.908;2023-04-15T08:45:40;5.55;;;5.05;;
23684;SDS011;12020;51.384;6.908;2023-04-15T08:48:07;5.70;;;5.20;;
23684;SDS011;12020;51.384;6.908;2023-04-15T08:50:37;5.32;;;4.82;;
23684;SDS011;12020;51.384;6.908;2023-04-15T08:53:04;5.95;;;5.22;;
23684;SDS011;12020;51.384;6.908;2023-04-15T08:55:31;5.80;;;5.30;;
23684;SDS011;12020;51.384;6.908;2023-04-15T08:58:04;6.35;;;5.72;;
23684;SDS011;12020;51.384;6.908;2023-04-15T09:00:31;6.50;;;5.90;;
23684;SDS011;12020;51.384;6.908;2023-04-15T09:02:57;6.57;;;5.97;;
23684;SDS011;12020;51.384;6.908;2023-04-15T09:05:24;7.05;;;6.45;;
23684;SDS011;12020;51.384;6.908;2023-04-15T09:07:50;6.68;;;6.07;;
23684;SDS011;12020;51.384;6.908;2023-04-15T09:10:16;6.83;;;6.20;;
23684;SDS011;12020;51.384;6.908;2023-04-15T09:12:42;6.20;;;5.60;;
23684;SDS011;12020;51.384;6.908;2023-04-15T09:15:09;7.93;;;7.13;;
23684;SDS011;12020;51.384;6.908;2023-04-15T09:17:42;8.00;;;7.20;;
23684;SDS011;12020;51.384;6.908;2023-04-15T09:20:09;6.38;;;5.80;;
23684;SDS011;12020;51.384;6.908;2023-04-15T09:22:38;6.00;;;5.40;;
23684;SDS011;12020;51.384;6.908;2023-04-15T09:25:26;6.50;;;5.15;;
23684;SDS011;12020;51.384;6.908;2023-04-15T09:27:59;5.88;;;5.28;;
23684;SDS011;12020;51.384;6.908;2023-04-15T09:30:27;5.57;;;5.07;;
23684;SDS011;12020;51.384;6.908;2023-04-15T09:32:54;5.93;;;5.30;;
23684;SDS011;12020;51.384;6.908;2023-04-15T09:35:25;6.45;;;5.85;;
23684;SDS011;12020;51.384;6.908;2023-04-15T09:37:52;6.82;;;6.22;;
23684;SDS011;12020;51.384;6.908;2023-04-15T09:40:33;6.95;;;6.25;;
23684;SDS011;12020;51.384;6.908;2023-04-15T09:43:00;6.85;;;6.25;;
23684;SDS011;12020;51.384;6.908;2023-04-15T09:45:27;6.70;;;6.10;;
23684;SDS011;12020;51.384;6.908;2023-04-15T09:47:53;6.18;;;5.57;;
23684;SDS011;12020;51.384;6.908;2023-04-15T09:50:21;6.80;;;6.20;;
23684;SDS011;12020;51.384;6.908;2023-04-15T09:52:51;6.90;;;6.20;;
23684;SDS011;12020;51.384;6.908;2023-04-15T09:55:19;7.60;;;7.00;;
23684;SDS011;12020;51.384;6.908;2023-04-15T09:57:45;9.10;;;8.30;;
23684;SDS011;12020;51.384;6.908;2023-04-15T10:00:11;8.00;;;7.30;;
23684;SDS011;12020;51.384;6.908;2023-04-15T10:02:40;7.22;;;6.55;;
23684;SDS011;12020;51.384;6.908;2023-04-15T10:05:07;6.38;;;5.88;;
23684;SDS011;12020;51.384;6.908;2023-04-15T10:07:36;6.97;;;6.43;;
23684;SDS011;12020;51.384;6.908;2023-04-15T10:10:03;7.15;;;6.63;;
23684;SDS011;12020;51.384;6.908;2023-04-15T10:12:30;6.30;;;5.80;;
23684;SDS011;12020;51.384;6.908;2023-04-15T10:14:59;8.40;;;7.60;;
23684;SDS011;12020;51.384;6.908;2023-04-15T10:17:33;7.25;;;6.65;;
23684;SDS011;12020;51.384;6.908;2023-04-15T10:20:01;7.50;;;6.85;;
23684;SDS011;12020;51.384;6.908;2023-04-15T10:22:29;8.60;;;7.95;;
23684;SDS011;12020;51.384;6.908;2023-04-15T10:24:56;8.43;;;7.82;;
23684;SDS011;12020;51.384;6.908;2023-04-15T10:27:23;7.55;;;6.95;;
23684;SDS011;12020;51.384;6.908;2023-04-15T10:29:50;6.55;;;6.05;;
23684;SDS011;12020;51.384;6.908;2023-04-15T10:32:20;6.72;;;6.13;;
23684;SDS011;12020;51.384;6.908;2023-04-15T10:34:47;6.50;;;5.90;;
23684;SDS011;12020;51.384;6.908;2023-04-15T10:37:19;6.45;;;5.88;;
23684;SDS011;12020;51.384;6.908;2023-04-15T10:40:33;6.72;;;6.22;;
23684;SDS011;12020;51.384;6.908;2023-04-15T10:43:00;6.90;;;6.30;;
23684;SDS011;12020;51.384;6.908;2023-04-15T10:45:31;7.25;;;6.65;;
23684;SDS011;12020;51.384;6.908;2023-04-15T10:48:00;6.22;;;5.72;;
23684;SDS011;12020;51.384;6.908;2023-04-15T10:50:27;7.20;;;6.60;;
23684;SDS011;12020;51.384;6.908;2023-04-15T10:53:01;6.28;;;5.78;;
23684;SDS011;12020;51.384;6.908;2023-04-15T10:55:32;6.73;;;6.20;;
23684;SDS011;12020;51.384;6.908;2023-04-15T10:58:00;6.32;;;5.82;;
23684;SDS011;12020;51.384;6.908;2023-04-15T11:00:31;5.15;;;4.75;;
23684;SDS011;12020;51.384;6.908;2023-04-15T11:03:33;4.90;;;4.50;;
23684;SDS011;12020;51.384;6.908;2023-04-15T11:06:05;5.47;;;5.07;;
23684;SDS011;12020;51.384;6.908;2023-04-15T11:14:43;4.80;;;4.40;;
23684;SDS011;12020;51.384;6.908;2023-04-15T11:17:13;4.50;;;4.10;;
23684;SDS011;12020;51.384;6.908;2023-04-15T11:19:39;4.35;;;4.00;;
23684;SDS011;12020;51.384;6.908;2023-04-15T11:22:06;4.63;;;4.18;;
23684;SDS011;12020;51.384;6.908;2023-04-15T11:24:33;5.03;;;4.63;;
23684;SDS011;12020;51.384;6.908;2023-04-15T11:27:00;5.55;;;5.03;;
23684;SDS011;12020;51.384;6.908;2023-04-15T11:29:32;5.38;;;4.97;;
23684;SDS011;12020;51.384;6.908;2023-04-15T11:32:04;4.90;;;4.50;;
23684;SDS011;12020;51.384;6.908;2023-04-15T11:34:31;4.72;;;4.32;;
23684;SDS011;12020;51.384;6.908;2023-04-15T11:36:57;4.90;;;4.50;;
23684;SDS011;12020;51.384;6.908;2023-04-15T11:39:24;4.63;;;4.22;;
23684;SDS011;12020;51.384;6.908;2023-04-15T11:41:50;5.30;;;4.88;;
23684;SDS011;12020;51.384;6.908;2023-04-15T11:44:16;5.50;;;4.95;;
23684;SDS011;12020;51.384;6.908;2023-04-15T11:46:42;5.97;;;5.37;;
23684;SDS011;12020;51.384;6.908;2023-04-15T11:49:08;5.90;;;5.03;;
23684;SDS011;12020;51.384;6.908;2023-04-15T11:51:34;3.95;;;3.60;;
23684;SDS011;12020;51.384;6.908;2023-04-15T11:54:00;4.63;;;4.22;;
23684;SDS011;12020;51.384;6.908;2023-04-15T11:56:25;4.60;;;4.20;;
23684;SDS011;12020;51.384;6.908;2023-04-15T11:58:57;4.90;;;4.40;;
23684;SDS011;12020;51.384;6.908;2023-04-15T12:01:33;4.55;;;4.00;;
23684;SDS011;12020;51.384;6.908;2023-04-15T12:04:00;5.13;;;4.25;;
23684;SDS011;12020;51.384;6.908;2023-04-15T12:06:30;4.95;;;4.45;;
23684;SDS011;12020;51.384;6.908;2023-04-15T12:14:26;5.22;;;4.72;;
23684;SDS011;12020;51.384;6.908;2023-04-15T12:16:56;5.40;;;4.90;;
23684;SDS011;12020;51.384;6.908;2023-04-15T12:19:37;5.10;;;4.60;;
23684;SDS011;12020;51.384;6.908;2023-04-15T12:22:09;4.63;;;4.22;;
23684;SDS011;12020;51.384;6.908;2023-04-15T12:24:35;4.80;;;4.40;;
23684;SDS011;12020;51.384;6.908;2023-04-15T12:27:02;3.90;;;3.60;;
23684;SDS011;12020;51.384;6.908;2023-04-15T12:29:32;4.85;;;4.45;;
23684;SDS011;12020;51.384;6.908;2023-04-15T12:34:36;4.60;;;4.20;;
23684;SDS011;12020;51.384;6.908;2023-04-15T12:37:04;4.30;;;3.90;;
23684;SDS011;12020;51.384;6.908;2023-04-15T12:39:31;4.82;;;4.18;;
23684;SDS011;12020;51.384;6.908;2023-04-15T12:42:00;4.50;;;4.10;;
23684;SDS011;12020;51.384;6.908;2023-04-15T12:44:27;4.18;;;3.78;;
23684;SDS011;12020;51.384;6.908;2023-04-15T12:46:53;3.85;;;3.53;;
23684;SDS011;12020;51.384;6.908;2023-04-15T12:49:22;4.07;;;3.67;;
23684;SDS011;12020;51.384;6.908;2023-04-15T12:51:48;4.10;;;3.70;;
23684;SDS011;12020;51.384;6.908;2023-04-15T12:54:16;4.15;;;3.70;;
23684;SDS011;12020;51.384;6.908;2023-04-15T12:56:43;4.30;;;3.90;;
23684;SDS011;12020;51.384;6.908;2023-04-15T12:59:13;3.63;;;3.33;;
23684;SDS011;12020;51.384;6.908;2023-04-15T13:01:40;4.38;;;3.97;;
23684;SDS011;12020;51.384;6.908;2023-04-15T13:04:06;4.00;;;3.60;;
23684;SDS011;12020;51.384;6.908;2023-04-15T13:06:32;4.05;;;3.65;;
23684;SDS011;12020;51.384;6.908;2023-04-15T13:09:01;4.20;;;3.70;;
23684;SDS011;12020;51.384;6.908;2023-04-15T13:11:27;4.40;;;4.00;;
23684;SDS011;12020;51.384;6.908;2023-04-15T13:13:57;4.20;;;3.80;;
23684;SDS011;12020;51.384;6.908;2023-04-15T13:16:27;4.97;;;3.95;;
23684;SDS011;12020;51.384;6.908;2023-04-15T13:18:53;4.00;;;3.65;;
23684;SDS011;12020;51.384;6.908;2023-04-15T13:21:18;4.40;;;4.00;;
23684;SDS011;12020;51.384;6.908;2023-04-15T13:23:44;3.85;;;3.55;;
23684;SDS011;12020;51.384;6.908;2023-04-15T13:26:10;4.10;;;3.70;;
23684;SDS011;12020;51.384;6.908;2023-04-15T13:28:36;4.18;;;3.78;;
23684;SDS011;12020;51.384;6.908;2023-04-15T13:31:02;4.87;;;4.20;;
23684;SDS011;12020;51.384;6.908;2023-04-15T13:33:30;4.10;;;3.67;;
23684;SDS011;12020;51.384;6.908;2023-04-15T13:35:56;4.68;;;4.10;;
23684;SDS011;12020;51.384;6.908;2023-04-15T13:38:23;3.72;;;3.40;;
23684;SDS011;12020;51.384;6.908;2023-04-15T13:40:49;3.65;;;3.35;;
23684;SDS011;12020;51.384;6.908;2023-04-15T13:43:15;4.60;;;4.07;;
23684;SDS011;12020;51.384;6.908;2023-04-15T13:45:41;4.18;;;3.78;;
23684;SDS011;12020;51.384;6.908;2023-04-15T13:48:07;3.58;;;3.20;;
23684;SDS011;12020;51.384;6.908;2023-04-15T13:50:33;4.43;;;3.40;;
23684;SDS011;12020;51.384;6.908;2023-04-15T13:52:59;3.97;;;3.60;;
23684;SDS011;12020;51.384;6.908;2023-04-15T13:55:24;3.70;;;3.30;;
23684;SDS011;12020;51.384;6.908;2023-04-15T13:57:50;4.00;;;3.50;;
23684;SDS011;12020;51.384;6.908;2023-04-15T14:00:16;3.70;;;3.40;;
23684;SDS011;12020;51.384;6.908;2023-04-15T14:02:42;3.60;;;3.30;;
23684;SDS011;12020;51.384;6.908;2023-04-15T14:05:07;4.00;;;3.60;;
23684;SDS011;12020;51.384;6.908;2023-04-15T14:07:34;3.65;;;3.35;;
23684;SDS011;12020;51.384;6.908;2023-04-15T14:09:59;3.88;;;3.47;;
23684;SDS011;12020;51.384;6.908;2023-04-15T14:12:25;4.25;;;3.40;;
23684;SDS011;12020;51.384;6.908;2023-04-15T14:14:51;4.15;;;3.50;;
23684;SDS011;12020;51.384;6.908;2023-04-15T14:17:16;3.40;;;3.05;;
23684;SDS011;12020;51.384;6.908;2023-04-15T14:19:43;4.15;;;3.20;;
23684;SDS011;12020;51.384;6.908;2023-04-15T14:22:09;4.00;;;3.30;;
23684;SDS011;12020;51.384;6.908;2023-04-15T14:24:35;3.30;;;3.00;;
23684;SDS011;12020;51.384;6.908;2023-04-15T14:27:01;3.30;;;3.00;;
23684;SDS011;12020;51.384;6.908;2023-04-15T14:29:27;4.13;;;3.20;;
23684;SDS011;12020;51.384;6.908;2023-04-15T14:31:53;3.90;;;3.20;;
23684;SDS011;12020;51.384;6.908;2023-04-15T14:34:22;3.80;;;3.40;;
23684;SDS011;12020;51.384;6.908;2023-04-15T14:36:49;3.88;;;3.25;;
23684;SDS011;12020;51.384;6.908;2023-04-15T14:39:17;3.75;;;3.40;;
23684;SDS011;12020;51.384;6.908;2023-04-15T14:41:44;3.30;;;3.00;;
23684;SDS011;12020;51.384;6.908;2023-04-15T14:44:10;3.63;;;3.20;;
23684;SDS011;12020;51.384;6.908;2023-04-15T14:46:37;3.40;;;3.10;;
23684;SDS011;12020;51.384;6.908;2023-04-15T14:49:03;3.50;;;3.20;;
23684;SDS011;12020;51.384;6.908;2023-04-15T14:51:29;3.57;;;3.27;;
23684;SDS011;12020;51.384;6.908;2023-04-15T14:53:56;3.47;;;2.80;;